Tuscarora, New York
Current Conditions -  °F | °C
As of 1:54 AM on Friday 28 Nov 2014 (Local Time) from KDSV Reporting Station
Light Snow Light Snow  
Wind Chill: -7°   Ceiling: 1400
Heat Index: -3°   Visibility: 9mi
Dew Point: -4°   Wind: 7mph
Humidity: 92%   Direction: 340°NNW
Pressure: 30.12"   Gusts: NA
Location:  42.6879°N, 77.8772°W
Report Text: KDSV 280654Z AUTO 34006KT 9SM -SN BKN014 BKN020 OVC024 M03/M04 A3012 RMK AO2 SLP218 P0000 T10281039
Loading
Personal Weather Stations






























Interactive Weather Map New forecast layout! Learn more

10-Day Weather Forecast

Advertisements
Track Severe Weather on mobile